Time;durP1;ratioP1;P1;durP2;ratioP2;P2;SDS_P1;SDS_P2;PMS_P1;PMS_P2;Temp;Humidity;BMP_temperature;BMP_pressure;BME280_temperature;BME280_humidity;BME280_pressure;Samples;Min_cycle;Max_cycle;Signal;HPM_P1;HPM_P2
2021/04/13 00:00:01;;;;;;;6.70;6.20;;;;;;;;;;2029549;29;20193;-57
2021/04/13 00:01:10;;;;;;;6.53;5.83;;;;;;;;;;2027649;29;20176;-60
2021/04/13 00:02:11;;;;;;;7.90;6.40;;;;;;;;;;2031050;29;20251;-57
2021/04/13 00:03:12;;;;;;;6.60;5.93;;;;;;;;;;2025027;29;20498;-55
2021/04/13 00:04:19;;;;;;;7.33;5.93;;;;;;;;;;2024467;29;20468;-58
2021/04/13 00:05:25;;;;;;;7.00;6.30;;;;;;;;;;2018048;29;20522;-59
2021/04/13 00:06:32;;;;;;;8.40;6.63;;;;;;;;;;2018884;29;20887;-59
2021/04/13 00:07:34;;;;;;;6.37;5.77;;;;;;;;;;2027184;29;20424;-56
2021/04/13 00:08:34;;;;;;;8.07;6.67;;;;;;;;;;2027507;29;20789;-55
2021/04/13 00:09:35;;;;;;;6.60;6.07;;;;;;;;;;2029634;29;20493;-57
2021/04/13 00:10:41;;;;;;;7.93;6.70;;;;;;;;;;2027574;29;20192;-56
2021/04/13 00:11:42;;;;;;;7.67;7.07;;;;;;;;;;2025106;29;20621;-57
2021/04/13 00:12:42;;;;;;;7.33;6.63;;;;;;;;;;2024389;29;20419;-58
2021/04/13 00:13:43;;;;;;;7.33;6.33;;;;;;;;;;2032038;29;20439;-59
2021/04/13 00:14:51;;;;;;;7.23;6.47;;;;;;;;;;2025045;29;20727;-61
2021/04/13 00:15:54;;;;;;;6.90;6.23;;;;;;;;;;2018631;29;20195;-55
2021/04/13 00:16:56;;;;;;;7.70;6.20;;;;;;;;;;2025661;29;20480;-58
2021/04/13 00:17:57;;;;;;;7.83;7.00;;;;;;;;;;2026463;29;20187;-58
2021/04/13 00:18:57;;;;;;;8.97;6.40;;;;;;;;;;2026579;29;20416;-59
2021/04/13 00:19:57;;;;;;;7.73;6.47;;;;;;;;;;2026024;29;20176;-55
2021/04/13 00:21:00;;;;;;;7.00;6.40;;;;;;;;;;2025906;29;20535;-57
2021/04/13 00:22:01;;;;;;;7.13;6.27;;;;;;;;;;2017940;29;20173;-56
2021/04/13 00:23:02;;;;;;;10.40;6.70;;;;;;;;;;2024430;29;20164;-58
2021/04/13 00:24:06;;;;;;;7.63;7.03;;;;;;;;;;2026882;29;20292;-59
2021/04/13 00:25:07;;;;;;;8.77;7.07;;;;;;;;;;2021583;29;20178;-58
2021/04/13 00:26:08;;;;;;;7.93;7.23;;;;;;;;;;2028667;29;20255;-59
2021/04/13 00:27:11;;;;;;;7.33;6.57;;;;;;;;;;2027133;29;20502;-55
2021/04/13 00:28:11;;;;;;;7.80;6.77;;;;;;;;;;2025945;29;20176;-56
2021/04/13 00:29:12;;;;;;;9.00;7.60;;;;;;;;;;2028452;29;20188;-58
2021/04/13 00:30:18;;;;;;;11.80;7.50;;;;;;;;;;2029873;29;20181;-64
2021/04/13 00:31:39;;;;;;;7.73;6.97;;;;;;;;;;2025306;29;20714;-59
2021/04/13 00:32:46;;;;;;;8.40;7.13;;;;;;;;;;2024646;29;20606;-58
2021/04/13 00:33:47;;;;;;;8.63;7.00;;;;;;;;;;2025376;29;20204;-58
2021/04/13 00:35:08;;;;;;;7.73;7.07;;;;;;;;;;2032934;29;20176;-57
2021/04/13 00:36:15;;;;;;;8.10;6.87;;;;;;;;;;2018137;29;21036;-58
2021/04/13 00:37:23;;;;;;;7.40;6.67;;;;;;;;;;2032177;29;20562;-58
2021/04/13 00:38:26;;;;;;;8.10;7.30;;;;;;;;;;2033777;29;20204;-55
2021/04/13 00:39:28;;;;;;;7.63;6.83;;;;;;;;;;2037921;29;20449;-56
2021/04/13 00:40:29;;;;;;;7.70;6.90;;;;;;;;;;2020146;29;20177;-55
2021/04/13 00:41:30;;;;;;;8.87;7.23;;;;;;;;;;2017709;29;20405;-56
2021/04/13 00:42:32;;;;;;;11.77;7.50;;;;;;;;;;2016670;29;20180;-58
2021/04/13 00:43:32;;;;;;;7.70;6.90;;;;;;;;;;2016376;29;20178;-59
2021/04/13 00:44:35;;;;;;;9.90;7.50;;;;;;;;;;2030652;29;20443;-55
2021/04/13 00:45:36;;;;;;;8.43;6.97;;;;;;;;;;2031989;29;20224;-55
2021/04/13 00:46:42;;;;;;;8.03;6.87;;;;;;;;;;2027191;29;20425;-59
2021/04/13 00:47:43;;;;;;;8.97;8.17;;;;;;;;;;2025020;29;20472;-58
2021/04/13 00:48:44;;;;;;;7.93;7.13;;;;;;;;;;2024750;29;20559;-58
2021/04/13 00:49:47;;;;;;;7.87;7.10;;;;;;;;;;2024584;29;20229;-59
2021/04/13 00:50:49;;;;;;;8.17;7.47;;;;;;;;;;2027183;29;20560;-59
2021/04/13 00:51:51;;;;;;;8.23;7.50;;;;;;;;;;2018722;29;20495;-58
2021/04/13 00:52:54;;;;;;;8.50;7.87;;;;;;;;;;2026908;29;20419;-56
2021/04/13 00:53:57;;;;;;;8.10;7.30;;;;;;;;;;2024407;29;20811;-59
2021/04/13 00:55:00;;;;;;;9.50;7.93;;;;;;;;;;2018767;29;20428;-56
2021/04/13 00:56:06;;;;;;;7.83;7.13;;;;;;;;;;2028080;29;20510;-56
2021/04/13 00:57:09;;;;;;;9.03;7.60;;;;;;;;;;2023749;29;20418;-59
2021/04/13 00:58:09;;;;;;;10.47;7.57;;;;;;;;;;2035889;29;20923;-57
2021/04/13 00:59:11;;;;;;;9.30;7.60;;;;;;;;;;2026596;29;20483;-56
2021/04/13 01:00:16;;;;;;;8.87;6.83;;;;;;;;;;2025846;29;20642;-55
2021/04/13 01:01:18;;;;;;;11.93;7.80;;;;;;;;;;2029855;29;20917;-58
2021/04/13 01:02:23;;;;;;;7.97;7.27;;;;;;;;;;2028210;29;20514;-60
2021/04/13 01:03:25;;;;;;;9.97;7.23;;;;;;;;;;2030738;29;20899;-58
2021/04/13 01:04:28;;;;;;;9.77;7.30;;;;;;;;;;2029895;29;20483;-58
2021/04/13 01:05:39;;;;;;;8.13;6.73;;;;;;;;;;2026658;29;20482;-58
2021/04/13 01:06:40;;;;;;;9.60;7.27;;;;;;;;;;2026022;29;20510;-59
2021/04/13 01:07:41;;;;;;;8.53;7.57;;;;;;;;;;2026365;29;20439;-57
2021/04/13 01:08:42;;;;;;;10.80;7.60;;;;;;;;;;2026574;29;20265;-57
2021/04/13 01:09:46;;;;;;;8.00;7.30;;;;;;;;;;2026715;29;20426;-58
2021/04/13 01:10:47;;;;;;;8.80;8.00;;;;;;;;;;2033552;29;20188;-57
2021/04/13 01:12:01;;;;;;;8.30;7.60;;;;;;;;;;2033514;29;20911;-60
2021/04/13 01:13:08;;;;;;;7.97;7.27;;;;;;;;;;2026582;29;20191;-59
2021/04/13 01:14:09;;;;;;;13.80;7.33;;;;;;;;;;2027613;29;20470;-59
2021/04/13 01:15:11;;;;;;;6.80;6.17;;;;;;;;;;2029295;29;20407;-56
2021/04/13 01:16:12;;;;;;;8.77;7.30;;;;;;;;;;2029312;29;20506;-55
2021/04/13 01:17:12;;;;;;;8.87;7.50;;;;;;;;;;2026856;29;20944;-57
2021/04/13 01:18:23;;;;;;;8.10;7.40;;;;;;;;;;2026672;29;20260;-58
2021/04/13 01:19:43;;;;;;;8.37;7.57;;;;;;;;;;2026010;29;20203;-60
2021/04/13 01:21:02;;;;;;;7.90;7.10;;;;;;;;;;2027538;29;20447;-55
2021/04/13 01:22:11;;;;;;;8.60;7.80;;;;;;;;;;2025356;29;20439;-57
2021/04/13 01:23:18;;;;;;;9.57;7.87;;;;;;;;;;2018470;29;20409;-57
2021/04/13 01:24:30;;;;;;;8.53;7.33;;;;;;;;;;2022512;29;20464;-58
2021/04/13 01:25:40;;;;;;;7.47;6.87;;;;;;;;;;2023042;29;20438;-57
2021/04/13 01:26:44;;;;;;;7.53;6.83;;;;;;;;;;2028332;29;20470;-57
2021/04/13 01:27:49;;;;;;;13.37;8.37;;;;;;;;;;2028143;29;20411;-56
2021/04/13 01:28:51;;;;;;;8.27;7.30;;;;;;;;;;2033831;29;20490;-56
2021/04/13 01:29:52;;;;;;;9.37;7.47;;;;;;;;;;2033592;29;20442;-55
2021/04/13 01:31:16;;;;;;;8.87;7.60;;;;;;;;;;2028040;29;20899;-59
2021/04/13 01:32:17;;;;;;;7.57;7.03;;;;;;;;;;2027795;29;20431;-57
2021/04/13 01:33:36;;;;;;;9.80;7.70;;;;;;;;;;2036898;29;20831;-59
2021/04/13 01:35:03;;;;;;;10.73;7.27;;;;;;;;;;2028343;29;20479;-58
2021/04/13 01:36:00;;;;;;;7.87;7.13;;;;;;;;;;2021460;29;20484;-59
2021/04/13 01:37:06;;;;;;;11.17;7.67;;;;;;;;;;2033992;29;20833;-60
2021/04/13 01:39:18;;;;;;;9.50;7.23;;;;;;;;;;2026101;29;20498;-60
2021/04/13 01:42:56;;;;;;;8.23;7.03;;;;;;;;;;2025582;29;20435;-57
2021/04/13 01:43:56;;;;;;;7.57;7.00;;;;;;;;;;2025999;29;20204;-60
2021/04/13 01:45:17;;;;;;;12.30;7.97;;;;;;;;;;2027575;29;20211;-57
2021/04/13 01:46:17;;;;;;;8.40;7.60;;;;;;;;;;2031007;29;20636;-60
2021/04/13 01:47:20;;;;;;;8.20;7.40;;;;;;;;;;2025946;29;20408;-58
2021/04/13 01:48:20;;;;;;;9.63;8.23;;;;;;;;;;2025639;29;20564;-59
2021/04/13 01:49:21;;;;;;;17.03;8.50;;;;;;;;;;2026269;29;20435;-58
2021/04/13 01:50:23;;;;;;;8.07;7.37;;;;;;;;;;2028354;29;20179;-58
2021/04/13 01:51:23;;;;;;;9.83;7.03;;;;;;;;;;2027096;29;20200;-58
2021/04/13 01:52:44;;;;;;;9.47;7.77;;;;;;;;;;2028347;29;20446;-59
2021/04/13 01:53:46;;;;;;;8.57;7.50;;;;;;;;;;2025868;29;20638;-59
2021/04/13 01:54:47;;;;;;;8.07;7.27;;;;;;;;;;2028195;29;20423;-59
2021/04/13 01:55:48;;;;;;;8.33;7.47;;;;;;;;;;2026248;29;20431;-59
2021/04/13 01:56:54;;;;;;;7.13;6.47;;;;;;;;;;2035219;29;20173;-60
2021/04/13 01:58:06;;;;;;;9.27;7.83;;;;;;;;;;2033182;29;20410;-59
2021/04/13 01:59:15;;;;;;;8.73;7.93;;;;;;;;;;2023316;29;20460;-60
2021/04/13 02:00:27;;;;;;;11.23;7.87;;;;;;;;;;2037376;29;20431;-59
2021/04/13 02:01:31;;;;;;;7.77;6.97;;;;;;;;;;2036363;29;20437;-60
2021/04/13 02:02:34;;;;;;;9.33;7.50;;;;;;;;;;2028477;29;20578;-59
2021/04/13 02:03:44;;;;;;;8.43;7.40;;;;;;;;;;2032133;29;21132;-58
2021/04/13 02:04:48;;;;;;;7.57;6.77;;;;;;;;;;2026684;29;20920;-58
2021/04/13 02:05:53;;;;;;;17.63;8.90;;;;;;;;;;2026066;29;20173;-57
2021/04/13 02:06:57;;;;;;;7.47;6.17;;;;;;;;;;2025701;29;20448;-59
2021/04/13 02:08:06;;;;;;;8.63;7.53;;;;;;;;;;2030272;29;20878;-59
2021/04/13 02:09:29;;;;;;;9.17;6.70;;;;;;;;;;2025244;29;20882;-61
2021/04/13 02:10:38;;;;;;;7.80;6.93;;;;;;;;;;2028447;29;20404;-56
2021/04/13 02:11:41;;;;;;;10.30;7.03;;;;;;;;;;2032511;29;20435;-57
2021/04/13 02:12:44;;;;;;;8.00;7.13;;;;;;;;;;2027620;29;20455;-56
2021/04/13 02:13:56;;;;;;;7.17;6.63;;;;;;;;;;2029209;29;20451;-56
2021/04/13 02:15:03;;;;;;;8.00;6.33;;;;;;;;;;2025426;29;20466;-59
2021/04/13 02:16:05;;;;;;;8.47;6.37;;;;;;;;;;2022338;29;20174;-59
2021/04/13 02:17:10;;;;;;;8.93;6.13;;;;;;;;;;2025178;29;20440;-58
2021/04/13 02:18:20;;;;;;;8.67;6.10;;;;;;;;;;2025173;29;20961;-59
2021/04/13 02:19:21;;;;;;;7.43;6.73;;;;;;;;;;2027990;29;20959;-58
2021/04/13 02:20:30;;;;;;;8.27;6.30;;;;;;;;;;2031323;29;20784;-58
2021/04/13 02:21:31;;;;;;;6.60;6.00;;;;;;;;;;2027589;29;20415;-58
2021/04/13 02:22:31;;;;;;;9.00;6.50;;;;;;;;;;2028114;29;20248;-56
2021/04/13 02:23:32;;;;;;;10.47;6.60;;;;;;;;;;2025477;29;20252;-57
2021/04/13 02:24:33;;;;;;;7.10;6.50;;;;;;;;;;2028138;29;20181;-54
2021/04/13 02:25:39;;;;;;;6.63;5.93;;;;;;;;;;2026660;29;20173;-57
2021/04/13 02:26:48;;;;;;;10.13;7.00;;;;;;;;;;2028411;29;20165;-55
2021/04/13 02:27:49;;;;;;;8.73;6.53;;;;;;;;;;2032487;29;20270;-57
2021/04/13 02:28:50;;;;;;;7.87;6.87;;;;;;;;;;2025337;29;20411;-57
2021/04/13 02:30:01;;;;;;;6.87;6.20;;;;;;;;;;2025368;29;20252;-56
2021/04/13 02:31:05;;;;;;;6.77;6.07;;;;;;;;;;2027155;29;20169;-57
2021/04/13 02:32:12;;;;;;;9.37;7.47;;;;;;;;;;2020173;29;20181;-60
2021/04/13 02:33:20;;;;;;;8.07;6.23;;;;;;;;;;2032738;29;20188;-53
2021/04/13 02:34:23;;;;;;;7.73;6.40;;;;;;;;;;2052595;23;20492;-67
2021/04/13 02:35:29;;;;;;;7.30;6.40;;;;;;;;;;2046745;28;20428;-63
2021/04/13 02:36:30;;;;;;;7.17;6.43;;;;;;;;;;2040237;29;20494;-61
2021/04/13 02:37:33;;;;;;;7.63;6.37;;;;;;;;;;2041201;29;20195;-59
2021/04/13 02:38:35;;;;;;;7.43;6.67;;;;;;;;;;2041399;29;20188;-65
2021/04/13 02:39:38;;;;;;;8.20;6.37;;;;;;;;;;2042783;29;20465;-65
2021/04/13 02:41:04;;;;;;;8.47;6.70;;;;;;;;;;2041976;29;20418;-65
2021/04/13 02:42:06;;;;;;;8.07;6.10;;;;;;;;;;2041634;29;20429;-64
2021/04/13 02:43:09;;;;;;;8.13;6.37;;;;;;;;;;2041468;29;20422;-59
2021/04/13 02:44:11;;;;;;;6.87;6.00;;;;;;;;;;2040853;29;20203;-65
2021/04/13 02:45:23;;;;;;;7.43;6.63;;;;;;;;;;2039224;29;20434;-64
2021/04/13 02:46:27;;;;;;;7.17;6.47;;;;;;;;;;2039121;29;20428;-65
2021/04/13 02:47:29;;;;;;;8.07;5.67;;;;;;;;;;2041068;29;20429;-61
2021/04/13 02:48:33;;;;;;;9.47;6.87;;;;;;;;;;2041626;29;20421;-64
2021/04/13 02:49:37;;;;;;;10.63;5.97;;;;;;;;;;2041210;29;20192;-63
2021/04/13 02:50:39;;;;;;;8.67;6.87;;;;;;;;;;2042461;29;20410;-67
2021/04/13 02:51:48;;;;;;;9.57;6.47;;;;;;;;;;2037292;29;20160;-64
2021/04/13 02:52:49;;;;;;;11.80;6.23;;;;;;;;;;2041457;29;20413;-65
2021/04/13 02:53:55;;;;;;;9.30;6.37;;;;;;;;;;2041202;29;20496;-64
2021/04/13 02:54:56;;;;;;;7.80;6.40;;;;;;;;;;2040204;29;20493;-63
2021/04/13 02:55:57;;;;;;;7.47;6.30;;;;;;;;;;2036020;29;20189;-62
2021/04/13 02:57:00;;;;;;;6.43;5.93;;;;;;;;;;2042454;29;20180;-64
2021/04/13 02:58:02;;;;;;;9.27;6.03;;;;;;;;;;2046246;29;20175;-64
2021/04/13 02:59:05;;;;;;;9.70;6.20;;;;;;;;;;2043020;28;20436;-64
2021/04/13 03:00:07;;;;;;;7.33;5.87;;;;;;;;;;2042958;29;20438;-63
2021/04/13 03:01:08;;;;;;;9.17;6.57;;;;;;;;;;2043136;29;20176;-60
2021/04/13 03:02:08;;;;;;;9.10;6.90;;;;;;;;;;2045925;28;20484;-66
2021/04/13 03:03:13;;;;;;;7.40;6.80;;;;;;;;;;2035600;29;20180;-65
2021/04/13 03:04:14;;;;;;;8.80;6.20;;;;;;;;;;2042299;29;20241;-62
2021/04/13 03:05:17;;;;;;;8.83;6.77;;;;;;;;;;2042407;29;20212;-64
2021/04/13 03:06:18;;;;;;;7.23;6.40;;;;;;;;;;2043353;29;20179;-65
2021/04/13 03:07:24;;;;;;;6.93;6.33;;;;;;;;;;2048350;29;20615;-65
2021/04/13 03:08:25;;;;;;;6.40;5.90;;;;;;;;;;2046686;28;20182;-65
2021/04/13 03:09:27;;;;;;;12.27;6.67;;;;;;;;;;2053457;28;20820;-64
2021/04/13 03:10:29;;;;;;;9.13;5.83;;;;;;;;;;2051460;28;20826;-64
2021/04/13 03:11:30;;;;;;;7.57;6.63;;;;;;;;;;2045208;29;20487;-64
2021/04/13 03:12:33;;;;;;;11.30;6.47;;;;;;;;;;2043239;29;20538;-62
2021/04/13 03:13:34;;;;;;;8.17;6.07;;;;;;;;;;2045892;29;20222;-65
2021/04/13 03:14:37;;;;;;;7.80;6.27;;;;;;;;;;2045202;28;20617;-64
2021/04/13 03:15:38;;;;;;;8.97;5.80;;;;;;;;;;2036164;29;20195;-66
2021/04/13 03:16:40;;;;;;;6.27;5.70;;;;;;;;;;2037595;29;20410;-66
2021/04/13 03:17:50;;;;;;;14.80;6.17;;;;;;;;;;2039832;29;20176;-62
2021/04/13 03:18:52;;;;;;;9.10;6.30;;;;;;;;;;2037666;29;20186;-64
2021/04/13 03:19:59;;;;;;;7.67;6.27;;;;;;;;;;2045615;28;20450;-65
2021/04/13 03:21:02;;;;;;;8.57;6.43;;;;;;;;;;2041736;29;20958;-64
2021/04/13 03:22:03;;;;;;;7.97;6.50;;;;;;;;;;2042866;29;20461;-64
2021/04/13 03:23:05;;;;;;;6.97;6.03;;;;;;;;;;2034693;29;20775;-63
2021/04/13 03:24:07;;;;;;;9.60;6.87;;;;;;;;;;2040717;29;20438;-65
2021/04/13 03:25:09;;;;;;;6.60;5.83;;;;;;;;;;2048307;28;20421;-66
2021/04/13 03:26:13;;;;;;;8.73;6.67;;;;;;;;;;2044637;28;20891;-67
2021/04/13 03:27:19;;;;;;;10.97;7.47;;;;;;;;;;2044927;28;20399;-59
2021/04/13 03:28:23;;;;;;;8.73;6.30;;;;;;;;;;2042783;29;20256;-68
2021/04/13 03:29:26;;;;;;;14.17;6.60;;;;;;;;;;2040667;29;20179;-64
2021/04/13 03:30:28;;;;;;;11.60;6.07;;;;;;;;;;2039200;29;20405;-64
2021/04/13 03:31:32;;;;;;;8.80;6.20;;;;;;;;;;2039909;29;20415;-67
2021/04/13 03:32:35;;;;;;;7.00;6.33;;;;;;;;;;2039670;29;21094;-65
2021/04/13 03:33:37;;;;;;;13.03;6.87;;;;;;;;;;2046884;29;20460;-61
2021/04/13 03:34:40;;;;;;;11.40;6.50;;;;;;;;;;2042385;28;20219;-65
2021/04/13 03:35:41;;;;;;;11.70;5.83;;;;;;;;;;2036358;29;20466;-65
2021/04/13 03:36:42;;;;;;;10.67;6.70;;;;;;;;;;2037609;29;20426;-65
2021/04/13 03:37:43;;;;;;;6.87;6.10;;;;;;;;;;2040259;29;20187;-64
2021/04/13 03:38:45;;;;;;;9.57;6.50;;;;;;;;;;2042690;28;20175;-65
2021/04/13 03:39:46;;;;;;;9.17;6.70;;;;;;;;;;2051768;28;20214;-63
2021/04/13 03:40:47;;;;;;;9.00;6.97;;;;;;;;;;2042047;29;20183;-66
2021/04/13 03:41:48;;;;;;;10.97;7.03;;;;;;;;;;2038451;29;20518;-64
2021/04/13 03:42:53;;;;;;;7.87;6.57;;;;;;;;;;2049251;28;20266;-64
2021/04/13 03:43:58;;;;;;;11.27;6.50;;;;;;;;;;2047028;29;20186;-66
2021/04/13 03:44:59;;;;;;;11.20;7.20;;;;;;;;;;2042151;28;20401;-65
2021/04/13 03:46:02;;;;;;;12.20;7.00;;;;;;;;;;2037498;28;20458;-67
2021/04/13 03:47:07;;;;;;;8.47;7.03;;;;;;;;;;2041883;28;20191;-67
2021/04/13 03:48:18;;;;;;;8.77;6.07;;;;;;;;;;2039577;28;20450;-64
2021/04/13 03:49:22;;;;;;;8.80;6.67;;;;;;;;;;2044321;29;20441;-63
2021/04/13 03:50:25;;;;;;;9.60;6.70;;;;;;;;;;2043391;29;20453;-66
2021/04/13 03:51:34;;;;;;;9.00;6.63;;;;;;;;;;2037036;29;20964;-67
2021/04/13 03:52:34;;;;;;;8.97;6.70;;;;;;;;;;2038426;29;20414;-65
2021/04/13 03:53:36;;;;;;;7.53;6.37;;;;;;;;;;2040627;29;20449;-62
2021/04/13 03:54:38;;;;;;;9.90;6.27;;;;;;;;;;2036865;29;20200;-64
2021/04/13 03:55:39;;;;;;;9.20;6.07;;;;;;;;;;2036065;29;20211;-65
2021/04/13 03:56:40;;;;;;;7.27;6.27;;;;;;;;;;2038562;29;20956;-63
2021/04/13 03:57:40;;;;;;;10.37;6.57;;;;;;;;;;2040132;29;20421;-64
2021/04/13 03:58:40;;;;;;;9.03;6.77;;;;;;;;;;2043020;29;20192;-65
2021/04/13 03:59:43;;;;;;;6.73;6.13;;;;;;;;;;2041163;29;20212;-65
2021/04/13 04:00:44;;;;;;;8.83;6.60;;;;;;;;;;2037388;29;20184;-63
2021/04/13 04:01:46;;;;;;;9.90;6.40;;;;;;;;;;2039262;29;20482;-66
2021/04/13 04:02:47;;;;;;;14.20;6.83;;;;;;;;;;2036259;29;20188;-65
2021/04/13 04:04:01;;;;;;;9.13;6.47;;;;;;;;;;2036582;29;20437;-63
2021/04/13 04:05:06;;;;;;;10.63;7.40;;;;;;;;;;2041921;29;20621;-63
2021/04/13 04:06:07;;;;;;;8.60;6.87;;;;;;;;;;2046454;29;20743;-65
2021/04/13 04:08:14;;;;;;;14.97;7.50;;;;;;;;;;2048508;29;20420;-65
2021/04/13 04:08:52;;;;;;;7.87;6.93;;;;;;;;;;2029320;29;20195;-65
2021/04/13 04:09:52;;;;;;;7.00;6.37;;;;;;;;;;2040875;29;20433;-65
2021/04/13 04:10:54;;;;;;;8.27;6.40;;;;;;;;;;2040809;29;20932;-65
2021/04/13 04:11:55;;;;;;;11.93;6.57;;;;;;;;;;2034801;29;20234;-67
2021/04/13 04:12:57;;;;;;;10.23;7.83;;;;;;;;;;2035354;28;20555;-66
2021/04/13 04:13:58;;;;;;;7.90;6.90;;;;;;;;;;2032958;29;20263;-65
2021/04/13 04:15:01;;;;;;;11.53;7.07;;;;;;;;;;2040266;29;20806;-68
2021/04/13 04:16:01;;;;;;;10.53;6.63;;;;;;;;;;2042401;29;20437;-64
2021/04/13 04:17:03;;;;;;;12.73;7.27;;;;;;;;;;2041391;29;20207;-64
2021/04/13 04:18:10;;;;;;;8.60;7.20;;;;;;;;;;2041627;29;20207;-65
2021/04/13 04:19:18;;;;;;;8.43;6.73;;;;;;;;;;2043340;29;20881;-64
2021/04/13 04:20:30;;;;;;;10.90;7.00;;;;;;;;;;2049554;28;20439;-64
2021/04/13 04:21:35;;;;;;;12.40;6.97;;;;;;;;;;2040687;29;20596;-65
2021/04/13 04:22:43;;;;;;;7.77;6.77;;;;;;;;;;2041026;29;20168;-64
2021/04/13 04:23:44;;;;;;;8.87;6.73;;;;;;;;;;2048219;29;20747;-65
2021/04/13 04:24:44;;;;;;;8.10;6.97;;;;;;;;;;2041263;28;20472;-65
2021/04/13 04:25:46;;;;;;;13.20;7.30;;;;;;;;;;2040266;29;20720;-65
2021/04/13 04:27:13;;;;;;;11.20;7.77;;;;;;;;;;2040323;29;20195;-64
2021/04/13 04:28:20;;;;;;;9.63;6.60;;;;;;;;;;2025975;29;20423;-64
2021/04/13 04:29:20;;;;;;;10.13;7.37;;;;;;;;;;2045309;28;20401;-64
2021/04/13 04:30:28;;;;;;;13.93;7.40;;;;;;;;;;2045476;29;20422;-65
2021/04/13 04:31:36;;;;;;;12.10;7.60;;;;;;;;;;2038894;29;20172;-65
2021/04/13 04:32:41;;;;;;;12.80;8.30;;;;;;;;;;2044624;29;20417;-66
2021/04/13 04:33:41;;;;;;;9.80;7.60;;;;;;;;;;2049014;29;20925;-65
2021/04/13 04:34:41;;;;;;;10.70;7.90;;;;;;;;;;2043456;29;20436;-65
2021/04/13 04:35:43;;;;;;;12.13;7.97;;;;;;;;;;2049622;29;20183;-65
2021/04/13 04:36:44;;;;;;;12.33;7.73;;;;;;;;;;2039875;29;20171;-63
2021/04/13 04:37:47;;;;;;;16.13;7.70;;;;;;;;;;2037816;29;20498;-65
2021/04/13 04:38:48;;;;;;;9.60;7.43;;;;;;;;;;2043658;29;20468;-66
2021/04/13 04:40:08;;;;;;;10.27;8.17;;;;;;;;;;2035053;29;20862;-65
2021/04/13 04:41:10;;;;;;;10.33;7.83;;;;;;;;;;2040134;29;20745;-67
2021/04/13 04:42:21;;;;;;;13.27;7.17;;;;;;;;;;2048895;29;20411;-66
2021/04/13 04:43:40;;;;;;;8.63;7.73;;;;;;;;;;2034039;29;20497;-65
2021/04/13 04:44:40;;;;;;;10.80;8.00;;;;;;;;;;2039499;29;20421;-63
2021/04/13 04:45:44;;;;;;;10.30;7.53;;;;;;;;;;2043593;29;20837;-67
2021/04/13 04:46:44;;;;;;;9.50;7.73;;;;;;;;;;2043685;29;20204;-64
2021/04/13 04:47:45;;;;;;;12.83;8.90;;;;;;;;;;2049499;29;20420;-65
2021/04/13 04:48:58;;;;;;;13.97;8.00;;;;;;;;;;2041464;28;20223;-64
2021/04/13 04:49:59;;;;;;;14.07;8.23;;;;;;;;;;2042448;29;20909;-64
2021/04/13 04:51:04;;;;;;;14.97;8.57;;;;;;;;;;2040424;29;20460;-67
2021/04/13 04:52:05;;;;;;;15.87;8.03;;;;;;;;;;2043901;29;20175;-62
2021/04/13 04:53:05;;;;;;;12.93;8.07;;;;;;;;;;2043893;29;20184;-66
2021/04/13 04:54:06;;;;;;;16.97;8.07;;;;;;;;;;2048938;28;20179;-65
2021/04/13 04:55:06;;;;;;;12.47;7.67;;;;;;;;;;2041383;29;20253;-64
2021/04/13 04:56:10;;;;;;;9.90;8.27;;;;;;;;;;2048556;28;20189;-62
2021/04/13 04:57:10;;;;;;;13.20;8.30;;;;;;;;;;2045168;29;20253;-63
2021/04/13 04:58:10;;;;;;;14.33;9.30;;;;;;;;;;2046985;29;20406;-63
2021/04/13 04:59:10;;;;;;;13.97;8.67;;;;;;;;;;2044983;29;20229;-64
2021/04/13 05:00:11;;;;;;;11.23;7.63;;;;;;;;;;2046258;29;20282;-64
2021/04/13 05:01:11;;;;;;;12.63;8.03;;;;;;;;;;2042033;29;20210;-65
2021/04/13 05:02:11;;;;;;;15.67;8.67;;;;;;;;;;2042055;29;20183;-64
2021/04/13 05:03:11;;;;;;;12.87;8.77;;;;;;;;;;2042712;29;20230;-66
2021/04/13 05:04:12;;;;;;;17.93;8.80;;;;;;;;;;2044527;29;20191;-66
2021/04/13 05:05:12;;;;;;;11.10;8.40;;;;;;;;;;2045284;29;20187;-66
2021/04/13 05:06:13;;;;;;;12.83;9.03;;;;;;;;;;2049072;28;20174;-64
2021/04/13 05:07:13;;;;;;;11.47;9.37;;;;;;;;;;2042312;29;20187;-64
2021/04/13 05:08:14;;;;;;;17.67;10.03;;;;;;;;;;2041109;29;20184;-63
2021/04/13 05:09:14;;;;;;;11.37;8.67;;;;;;;;;;2043678;29;20175;-64
2021/04/13 05:10:14;;;;;;;10.67;9.03;;;;;;;;;;2048598;29;20209;-65
2021/04/13 05:11:15;;;;;;;14.63;8.13;;;;;;;;;;2039628;29;20173;-64
2021/04/13 05:12:15;;;;;;;12.73;9.13;;;;;;;;;;2035919;29;20208;-64
2021/04/13 05:13:16;;;;;;;14.20;9.30;;;;;;;;;;2041499;29;20179;-64
2021/04/13 05:14:16;;;;;;;12.20;8.53;;;;;;;;;;2038495;29;20221;-64
2021/04/13 05:15:17;;;;;;;10.53;9.30;;;;;;;;;;2041841;29;20726;-64
2021/04/13 05:16:17;;;;;;;16.87;9.00;;;;;;;;;;2042257;29;20272;-65
2021/04/13 05:17:17;;;;;;;14.53;9.07;;;;;;;;;;2045489;29;20174;-65
2021/04/13 05:18:18;;;;;;;13.30;8.83;;;;;;;;;;2047741;29;20303;-66
2021/04/13 05:19:18;;;;;;;15.43;9.40;;;;;;;;;;2039750;29;20176;-64
2021/04/13 05:20:19;;;;;;;14.63;9.10;;;;;;;;;;2042672;29;20274;-61
2021/04/13 05:21:19;;;;;;;13.93;8.90;;;;;;;;;;2045648;28;20710;-64
2021/04/13 05:22:19;;;;;;;10.90;8.27;;;;;;;;;;2051642;28;20201;-64
2021/04/13 05:23:20;;;;;;;12.77;8.63;;;;;;;;;;2037861;29;20215;-64
2021/04/13 05:24:21;;;;;;;13.90;9.03;;;;;;;;;;2040333;29;20191;-64
2021/04/13 05:25:21;;;;;;;12.23;9.47;;;;;;;;;;2053653;28;20181;-66
2021/04/13 05:26:21;;;;;;;14.20;9.00;;;;;;;;;;2050988;28;20179;-63
2021/04/13 05:27:22;;;;;;;12.70;8.80;;;;;;;;;;2041925;29;20191;-64
2021/04/13 05:28:22;;;;;;;10.80;9.40;;;;;;;;;;2039380;29;20198;-66
2021/04/13 05:29:23;;;;;;;15.57;9.13;;;;;;;;;;2044165;29;20179;-64
2021/04/13 05:30:24;;;;;;;14.33;9.47;;;;;;;;;;2047705;28;20576;-64
2021/04/13 05:31:24;;;;;;;12.30;8.83;;;;;;;;;;2040980;29;20278;-64
2021/04/13 05:32:24;;;;;;;13.13;8.90;;;;;;;;;;2041843;29;20175;-63
2021/04/13 05:33:25;;;;;;;13.07;8.77;;;;;;;;;;2042084;29;20644;-60
2021/04/13 05:34:25;;;;;;;12.77;8.77;;;;;;;;;;2038096;29;20821;-62
2021/04/13 05:35:25;;;;;;;11.90;8.13;;;;;;;;;;2039536;29;20206;-65
2021/04/13 05:36:26;;;;;;;9.50;8.50;;;;;;;;;;2041850;29;20263;-63
2021/04/13 05:37:29;;;;;;;11.93;8.23;;;;;;;;;;2049773;29;20171;-60
2021/04/13 05:38:31;;;;;;;19.17;8.77;;;;;;;;;;2036668;29;20204;-60
2021/04/13 05:39:31;;;;;;;15.57;8.97;;;;;;;;;;2046142;28;20487;-64
2021/04/13 05:40:32;;;;;;;12.73;8.90;;;;;;;;;;2046794;28;20441;-66
2021/04/13 05:41:33;;;;;;;14.93;8.20;;;;;;;;;;2047956;28;20174;-63
2021/04/13 05:42:34;;;;;;;11.97;9.13;;;;;;;;;;2049673;28;20425;-65
2021/04/13 05:43:38;;;;;;;11.50;8.47;;;;;;;;;;2037393;29;20240;-65
2021/04/13 05:44:38;;;;;;;11.90;8.30;;;;;;;;;;2038720;29;20203;-66
2021/04/13 05:45:41;;;;;;;13.80;9.17;;;;;;;;;;2040428;29;20187;-65
2021/04/13 05:46:42;;;;;;;16.60;9.03;;;;;;;;;;2041852;29;20183;-64
2021/04/13 05:47:42;;;;;;;14.80;9.10;;;;;;;;;;2038537;29;20803;-65
2021/04/13 05:48:42;;;;;;;10.57;8.60;;;;;;;;;;2038684;29;20178;-66
2021/04/13 05:49:42;;;;;;;15.80;8.53;;;;;;;;;;2037431;29;20711;-66
2021/04/13 05:50:43;;;;;;;11.83;8.37;;;;;;;;;;2039308;29;20208;-66
2021/04/13 05:51:44;;;;;;;13.97;7.90;;;;;;;;;;2039933;29;20203;-66
2021/04/13 05:52:44;;;;;;;13.97;8.27;;;;;;;;;;2040406;29;20239;-65
2021/04/13 05:53:44;;;;;;;9.80;7.93;;;;;;;;;;2044910;28;20178;-66
2021/04/13 05:54:45;;;;;;;10.63;7.60;;;;;;;;;;2046765;28;20210;-66
2021/04/13 05:55:45;;;;;;;11.93;8.20;;;;;;;;;;2036643;29;20279;-62
2021/04/13 05:56:47;;;;;;;11.83;8.07;;;;;;;;;;2039245;29;20200;-61
2021/04/13 05:57:49;;;;;;;9.73;7.87;;;;;;;;;;2041602;29;20251;-63
2021/04/13 05:58:50;;;;;;;10.47;7.30;;;;;;;;;;2037435;28;20250;-60
2021/04/13 05:59:51;;;;;;;9.73;6.97;;;;;;;;;;2039687;29;20711;-61
2021/04/13 06:00:54;;;;;;;8.43;7.33;;;;;;;;;;2035768;29;20176;-61
2021/04/13 06:01:55;;;;;;;9.60;7.37;;;;;;;;;;2037736;29;20211;-66
2021/04/13 06:02:56;;;;;;;8.13;7.33;;;;;;;;;;2037166;29;20192;-65
2021/04/13 06:03:56;;;;;;;10.20;7.70;;;;;;;;;;2041705;29;20402;-63
2021/04/13 06:04:58;;;;;;;12.03;8.43;;;;;;;;;;2035881;29;20224;-62
2021/04/13 06:05:59;;;;;;;15.87;8.03;;;;;;;;;;2043607;29;20819;-63
2021/04/13 06:06:59;;;;;;;9.67;7.23;;;;;;;;;;2048303;29;20198;-64
2021/04/13 06:07:59;;;;;;;13.53;8.13;;;;;;;;;;2038990;29;20183;-66
2021/04/13 06:09:00;;;;;;;9.57;7.60;;;;;;;;;;2040699;29;20188;-64
2021/04/13 06:10:03;;;;;;;16.60;8.07;;;;;;;;;;2041703;29;20196;-62
2021/04/13 06:11:04;;;;;;;13.03;7.90;;;;;;;;;;2039725;29;20426;-63
2021/04/13 06:12:04;;;;;;;9.07;6.73;;;;;;;;;;2047311;28;20234;-63
2021/04/13 06:13:05;;;;;;;10.77;7.07;;;;;;;;;;2039484;29;20243;-61
2021/04/13 06:14:06;;;;;;;10.30;7.57;;;;;;;;;;2037896;29;20184;-60
2021/04/13 06:15:07;;;;;;;9.57;7.40;;;;;;;;;;2044273;29;20183;-62
2021/04/13 06:16:10;;;;;;;13.00;6.70;;;;;;;;;;2046270;28;21006;-62
2021/04/13 06:17:11;;;;;;;8.83;6.90;;;;;;;;;;2041059;29;20184;-63
2021/04/13 06:18:11;;;;;;;11.37;7.13;;;;;;;;;;2033646;29;20287;-62
2021/04/13 06:19:11;;;;;;;10.97;7.43;;;;;;;;;;2033595;29;20176;-63
2021/04/13 06:20:12;;;;;;;11.90;7.77;;;;;;;;;;2040287;29;20273;-62
2021/04/13 06:21:12;;;;;;;7.53;6.50;;;;;;;;;;2039507;29;20175;-61
2021/04/13 06:22:12;;;;;;;10.13;6.83;;;;;;;;;;2046040;29;20176;-66